sensor_id;sensor_type;location;lat;lon;timestamp;temperature;humidity
4406;DHT22;2216;53.806;11.598;2023-04-25T00:02:18;9.30;60.00
4406;DHT22;2216;53.806;11.598;2023-04-25T00:04:44;9.40;60.40
4406;DHT22;2216;53.806;11.598;2023-04-25T00:07:11;9.30;60.00
4406;DHT22;2216;53.806;11.598;2023-04-25T00:09:37;9.30;60.00
4406;DHT22;2216;53.806;11.598;2023-04-25T00:12:03;9.30;60.10
4406;DHT22;2216;53.806;11.598;2023-04-25T00:14:29;9.30;60.10
4406;DHT22;2216;53.806;11.598;2023-04-25T00:16:55;9.30;60.20
4406;DHT22;2216;53.806;11.598;2023-04-25T00:19:21;9.20;59.90
4406;DHT22;2216;53.806;11.598;2023-04-25T00:21:47;9.20;60.00
4406;DHT22;2216;53.806;11.598;2023-04-25T00:24:13;9.20;59.90
4406;DHT22;2216;53.806;11.598;2023-04-25T00:26:38;9.20;59.90
4406;DHT22;2216;53.806;11.598;2023-04-25T00:29:04;9.20;60.00
4406;DHT22;2216;53.806;11.598;2023-04-25T00:31:30;9.20;60.20
4406;DHT22;2216;53.806;11.598;2023-04-25T00:33:55;9.20;60.30
4406;DHT22;2216;53.806;11.598;2023-04-25T00:36:21;9.20;60.10
4406;DHT22;2216;53.806;11.598;2023-04-25T00:38:47;9.20;60.00
4406;DHT22;2216;53.806;11.598;2023-04-25T00:41:13;9.20;59.90
4406;DHT22;2216;53.806;11.598;2023-04-25T00:43:39;9.10;60.00
4406;DHT22;2216;53.806;11.598;2023-04-25T00:46:05;9.20;60.10
4406;DHT22;2216;53.806;11.598;2023-04-25T00:48:31;9.10;60.30
4406;DHT22;2216;53.806;11.598;2023-04-25T00:50:58;9.10;60.20
4406;DHT22;2216;53.806;11.598;2023-04-25T00:53:26;9.10;60.00
4406;DHT22;2216;53.806;11.598;2023-04-25T00:55:54;9.10;60.00
4406;DHT22;2216;53.806;11.598;2023-04-25T00:58:21;9.10;60.10
4406;DHT22;2216;53.806;11.598;2023-04-25T01:00:48;9.10;60.20
4406;DHT22;2216;53.806;11.598;2023-04-25T01:03:16;9.10;60.20
4406;DHT22;2216;53.806;11.598;2023-04-25T01:05:45;9.10;60.30
4406;DHT22;2216;53.806;11.598;2023-04-25T01:08:12;9.10;60.20
4406;DHT22;2216;53.806;11.598;2023-04-25T01:10:38;9.10;60.10
4406;DHT22;2216;53.806;11.598;2023-04-25T01:13:04;9.00;60.10
4406;DHT22;2216;53.806;11.598;2023-04-25T01:15:29;9.10;60.40
4406;DHT22;2216;53.806;11.598;2023-04-25T01:17:55;9.00;60.30
4406;DHT22;2216;53.806;11.598;2023-04-25T01:20:23;9.10;60.30
4406;DHT22;2216;53.806;11.598;2023-04-25T01:22:50;9.00;60.10
4406;DHT22;2216;53.806;11.598;2023-04-25T01:25:17;9.00;60.20
4406;DHT22;2216;53.806;11.598;2023-04-25T01:27:44;9.10;60.60
4406;DHT22;2216;53.806;11.598;2023-04-25T01:30:10;9.00;60.40
4406;DHT22;2216;53.806;11.598;2023-04-25T01:32:36;9.00;60.40
4406;DHT22;2216;53.806;11.598;2023-04-25T01:35:06;9.00;60.50
4406;DHT22;2216;53.806;11.598;2023-04-25T01:37:39;9.00;60.30
4406;DHT22;2216;53.806;11.598;2023-04-25T01:40:06;9.00;60.40
4406;DHT22;2216;53.806;11.598;2023-04-25T01:42:33;9.00;60.20
4406;DHT22;2216;53.806;11.598;2023-04-25T01:45:00;9.00;60.20
4406;DHT22;2216;53.806;11.598;2023-04-25T01:47:26;8.90;60.20
4406;DHT22;2216;53.806;11.598;2023-04-25T01:49:51;9.00;60.20
4406;DHT22;2216;53.806;11.598;2023-04-25T01:52:17;8.90;60.20
4406;DHT22;2216;53.806;11.598;2023-04-25T01:54:43;9.00;60.40
4406;DHT22;2216;53.806;11.598;2023-04-25T01:57:13;9.00;60.20
4406;DHT22;2216;53.806;11.598;2023-04-25T01:59:39;8.90;60.20
4406;DHT22;2216;53.806;11.598;2023-04-25T02:02:05;8.90;60.50
4406;DHT22;2216;53.806;11.598;2023-04-25T02:04:31;8.90;60.30
4406;DHT22;2216;53.806;11.598;2023-04-25T02:06:56;8.90;60.30
4406;DHT22;2216;53.806;11.598;2023-04-25T02:09:22;8.90;60.30
4406;DHT22;2216;53.806;11.598;2023-04-25T02:11:48;8.90;60.50
4406;DHT22;2216;53.806;11.598;2023-04-25T02:14:14;8.90;60.30
4406;DHT22;2216;53.806;11.598;2023-04-25T02:16:40;8.90;60.50
4406;DHT22;2216;53.806;11.598;2023-04-25T02:19:06;8.90;60.50
4406;DHT22;2216;53.806;11.598;2023-04-25T02:21:32;8.90;60.50
4406;DHT22;2216;53.806;11.598;2023-04-25T02:23:58;8.80;60.50
4406;DHT22;2216;53.806;11.598;2023-04-25T02:26:23;8.90;61.20
4406;DHT22;2216;53.806;11.598;2023-04-25T02:28:50;8.80;60.40
4406;DHT22;2216;53.806;11.598;2023-04-25T02:31:16;8.90;60.50
4406;DHT22;2216;53.806;11.598;2023-04-25T02:33:42;8.80;60.30
4406;DHT22;2216;53.806;11.598;2023-04-25T02:36:08;8.80;60.30
4406;DHT22;2216;53.806;11.598;2023-04-25T02:38:34;8.80;60.30
4406;DHT22;2216;53.806;11.598;2023-04-25T02:41:00;8.80;60.60
4406;DHT22;2216;53.806;11.598;2023-04-25T02:43:25;8.80;60.50
4406;DHT22;2216;53.806;11.598;2023-04-25T02:45:51;8.80;60.40
4406;DHT22;2216;53.806;11.598;2023-04-25T02:48:17;8.80;60.40
4406;DHT22;2216;53.806;11.598;2023-04-25T02:50:42;8.70;60.70
4406;DHT22;2216;53.806;11.598;2023-04-25T02:53:08;8.80;61.20
4406;DHT22;2216;53.806;11.598;2023-04-25T02:55:34;8.70;61.00
4406;DHT22;2216;53.806;11.598;2023-04-25T02:57:59;8.70;60.70
4406;DHT22;2216;53.806;11.598;2023-04-25T03:00:25;8.60;60.60
4406;DHT22;2216;53.806;11.598;2023-04-25T03:02:51;8.60;60.50
4406;DHT22;2216;53.806;11.598;2023-04-25T03:05:17;8.60;61.30
4406;DHT22;2216;53.806;11.598;2023-04-25T03:07:43;8.50;60.70
4406;DHT22;2216;53.806;11.598;2023-04-25T03:10:10;8.50;60.90
4406;DHT22;2216;53.806;11.598;2023-04-25T03:12:36;8.50;61.00
4406;DHT22;2216;53.806;11.598;2023-04-25T03:15:02;8.40;61.00
4406;DHT22;2216;53.806;11.598;2023-04-25T03:17:29;8.40;61.50
4406;DHT22;2216;53.806;11.598;2023-04-25T03:19:55;8.40;60.90
4406;DHT22;2216;53.806;11.598;2023-04-25T03:22:20;8.30;61.10
4406;DHT22;2216;53.806;11.598;2023-04-25T03:24:46;8.30;61.00
4406;DHT22;2216;53.806;11.598;2023-04-25T03:27:12;8.30;61.20
4406;DHT22;2216;53.806;11.598;2023-04-25T03:29:38;8.30;61.10
4406;DHT22;2216;53.806;11.598;2023-04-25T03:32:04;8.30;61.10
4406;DHT22;2216;53.806;11.598;2023-04-25T03:34:30;8.20;60.80
4406;DHT22;2216;53.806;11.598;2023-04-25T03:36:55;8.20;61.20
4406;DHT22;2216;53.806;11.598;2023-04-25T03:39:21;8.20;60.90
4406;DHT22;2216;53.806;11.598;2023-04-25T03:41:47;8.20;60.80
4406;DHT22;2216;53.806;11.598;2023-04-25T03:44:13;8.10;60.90
4406;DHT22;2216;53.806;11.598;2023-04-25T03:46:38;8.10;60.90
4406;DHT22;2216;53.806;11.598;2023-04-25T03:49:04;8.10;61.60
4406;DHT22;2216;53.806;11.598;2023-04-25T03:51:30;8.00;61.00
4406;DHT22;2216;53.806;11.598;2023-04-25T03:53:56;8.00;60.90
4406;DHT22;2216;53.806;11.598;2023-04-25T03:56:22;7.90;60.80
4406;DHT22;2216;53.806;11.598;2023-04-25T03:58:47;8.00;61.40
4406;DHT22;2216;53.806;11.598;2023-04-25T04:01:13;7.90;60.70
4406;DHT22;2216;53.806;11.598;2023-04-25T04:03:39;7.90;60.70
4406;DHT22;2216;53.806;11.598;2023-04-25T04:06:06;7.90;60.60
4406;DHT22;2216;53.806;11.598;2023-04-25T04:08:33;7.90;60.70
4406;DHT22;2216;53.806;11.598;2023-04-25T04:10:59;7.80;60.70
4406;DHT22;2216;53.806;11.598;2023-04-25T04:13:28;7.80;60.70
4406;DHT22;2216;53.806;11.598;2023-04-25T04:15:55;7.80;60.60
4406;DHT22;2216;53.806;11.598;2023-04-25T04:18:21;7.80;60.60
4406;DHT22;2216;53.806;11.598;2023-04-25T04:20:47;7.80;60.70
4406;DHT22;2216;53.806;11.598;2023-04-25T04:23:12;7.70;61.00
4406;DHT22;2216;53.806;11.598;2023-04-25T04:25:39;7.70;60.80
4406;DHT22;2216;53.806;11.598;2023-04-25T04:28:05;7.70;60.90
4406;DHT22;2216;53.806;11.598;2023-04-25T04:30:32;7.60;61.00
4406;DHT22;2216;53.806;11.598;2023-04-25T04:33:02;7.60;60.60
4406;DHT22;2216;53.806;11.598;2023-04-25T04:35:27;7.60;61.40
4406;DHT22;2216;53.806;11.598;2023-04-25T04:37:53;7.60;60.80
4406;DHT22;2216;53.806;11.598;2023-04-25T04:40:19;7.50;60.70
4406;DHT22;2216;53.806;11.598;2023-04-25T04:42:45;7.50;60.50
4406;DHT22;2216;53.806;11.598;2023-04-25T04:45:11;7.50;60.60
4406;DHT22;2216;53.806;11.598;2023-04-25T04:47:38;7.50;60.60
4406;DHT22;2216;53.806;11.598;2023-04-25T04:50:08;7.50;60.70
4406;DHT22;2216;53.806;11.598;2023-04-25T04:52:35;7.40;61.00
4406;DHT22;2216;53.806;11.598;2023-04-25T04:55:02;7.50;61.20
4406;DHT22;2216;53.806;11.598;2023-04-25T04:57:28;7.50;61.80
4406;DHT22;2216;53.806;11.598;2023-04-25T04:59:55;7.60;61.50
4406;DHT22;2216;53.806;11.598;2023-04-25T05:02:21;7.60;61.60
4406;DHT22;2216;53.806;11.598;2023-04-25T05:04:46;7.70;61.70
4406;DHT22;2216;53.806;11.598;2023-04-25T05:07:12;7.80;61.90
4406;DHT22;2216;53.806;11.598;2023-04-25T05:09:38;7.90;62.10
4406;DHT22;2216;53.806;11.598;2023-04-25T05:12:04;8.00;62.30
4406;DHT22;2216;53.806;11.598;2023-04-25T05:14:30;8.10;62.20
4406;DHT22;2216;53.806;11.598;2023-04-25T05:16:55;8.20;62.30
4406;DHT22;2216;53.806;11.598;2023-04-25T05:19:21;8.20;62.10
4406;DHT22;2216;53.806;11.598;2023-04-25T05:21:47;8.30;62.10
4406;DHT22;2216;53.806;11.598;2023-04-25T05:24:13;8.40;62.00
4406;DHT22;2216;53.806;11.598;2023-04-25T05:26:38;8.50;61.90
4406;DHT22;2216;53.806;11.598;2023-04-25T05:29:04;8.60;61.90
4406;DHT22;2216;53.806;11.598;2023-04-25T05:31:31;8.60;61.90
4406;DHT22;2216;53.806;11.598;2023-04-25T05:33:57;8.70;61.70
4406;DHT22;2216;53.806;11.598;2023-04-25T05:36:22;8.70;61.50
4406;DHT22;2216;53.806;11.598;2023-04-25T05:38:48;8.80;61.50
4406;DHT22;2216;53.806;11.598;2023-04-25T05:41:14;8.90;61.60
4406;DHT22;2216;53.806;11.598;2023-04-25T05:43:39;8.90;61.60
4406;DHT22;2216;53.806;11.598;2023-04-25T05:46:10;9.00;61.50
4406;DHT22;2216;53.806;11.598;2023-04-25T05:48:37;9.10;61.50
4406;DHT22;2216;53.806;11.598;2023-04-25T05:51:03;9.10;61.30
4406;DHT22;2216;53.806;11.598;2023-04-25T05:53:29;9.20;61.20
4406;DHT22;2216;53.806;11.598;2023-04-25T05:55:55;9.30;61.10
4406;DHT22;2216;53.806;11.598;2023-04-25T05:58:20;9.30;60.80
4406;DHT22;2216;53.806;11.598;2023-04-25T06:00:46;9.30;60.60
4406;DHT22;2216;53.806;11.598;2023-04-25T06:03:12;9.20;60.40
4406;DHT22;2216;53.806;11.598;2023-04-25T06:05:41;9.20;60.30
4406;DHT22;2216;53.806;11.598;2023-04-25T06:08:08;9.20;60.20
4406;DHT22;2216;53.806;11.598;2023-04-25T06:10:34;9.20;60.20
4406;DHT22;2216;53.806;11.598;2023-04-25T06:12:59;9.20;60.30
4406;DHT22;2216;53.806;11.598;2023-04-25T06:15:25;9.20;60.50
4406;DHT22;2216;53.806;11.598;2023-04-25T06:17:51;9.20;60.70
4406;DHT22;2216;53.806;11.598;2023-04-25T06:20:16;9.20;60.60
4406;DHT22;2216;53.806;11.598;2023-04-25T06:22:42;9.30;60.50
4406;DHT22;2216;53.806;11.598;2023-04-25T06:25:08;9.30;60.50
4406;DHT22;2216;53.806;11.598;2023-04-25T06:27:34;9.30;60.10
4406;DHT22;2216;53.806;11.598;2023-04-25T06:30:00;9.30;60.40
4406;DHT22;2216;53.806;11.598;2023-04-25T06:32:25;9.40;60.80
4406;DHT22;2216;53.806;11.598;2023-04-25T06:34:55;9.50;60.90
4406;DHT22;2216;53.806;11.598;2023-04-25T06:37:20;9.70;61.00
4406;DHT22;2216;53.806;11.598;2023-04-25T06:39:46;9.60;60.30
4406;DHT22;2216;53.806;11.598;2023-04-25T06:42:12;9.70;60.30
4406;DHT22;2216;53.806;11.598;2023-04-25T06:44:37;9.70;59.90
4406;DHT22;2216;53.806;11.598;2023-04-25T06:47:03;9.70;59.80
4406;DHT22;2216;53.806;11.598;2023-04-25T06:49:29;9.70;59.90
4406;DHT22;2216;53.806;11.598;2023-04-25T06:51:54;9.70;59.90
4406;DHT22;2216;53.806;11.598;2023-04-25T06:54:20;9.70;59.90
4406;DHT22;2216;53.806;11.598;2023-04-25T06:56:46;9.70;59.90
4406;DHT22;2216;53.806;11.598;2023-04-25T06:59:11;9.70;59.90
4406;DHT22;2216;53.806;11.598;2023-04-25T07:01:37;9.70;60.10
4406;DHT22;2216;53.806;11.598;2023-04-25T07:04:03;9.80;60.40
4406;DHT22;2216;53.806;11.598;2023-04-25T07:06:28;9.90;60.40
4406;DHT22;2216;53.806;11.598;2023-04-25T07:08:55;9.90;60.20
4406;DHT22;2216;53.806;11.598;2023-04-25T07:11:21;10.00;60.20
4406;DHT22;2216;53.806;11.598;2023-04-25T07:13:47;10.10;60.30
4406;DHT22;2216;53.806;11.598;2023-04-25T07:16:12;10.10;60.40
4406;DHT22;2216;53.806;11.598;2023-04-25T07:18:38;10.20;60.30
4406;DHT22;2216;53.806;11.598;2023-04-25T07:21:04;10.30;60.10
4406;DHT22;2216;53.806;11.598;2023-04-25T07:23:29;10.30;60.10
4406;DHT22;2216;53.806;11.598;2023-04-25T07:25:55;10.30;60.00
4406;DHT22;2216;53.806;11.598;2023-04-25T07:28:21;10.40;60.10
4406;DHT22;2216;53.806;11.598;2023-04-25T07:30:47;10.50;60.00
4406;DHT22;2216;53.806;11.598;2023-04-25T07:33:12;10.60;60.00
4406;DHT22;2216;53.806;11.598;2023-04-25T07:35:38;10.60;59.80
4406;DHT22;2216;53.806;11.598;2023-04-25T07:38:04;10.70;60.00
4406;DHT22;2216;53.806;11.598;2023-04-25T07:40:32;10.80;60.00
4406;DHT22;2216;53.806;11.598;2023-04-25T07:42:57;10.80;59.70
4406;DHT22;2216;53.806;11.598;2023-04-25T07:45:23;10.90;59.40
4406;DHT22;2216;53.806;11.598;2023-04-25T07:47:49;10.80;59.10
4406;DHT22;2216;53.806;11.598;2023-04-25T07:50:15;10.80;59.30
4406;DHT22;2216;53.806;11.598;2023-04-25T07:52:41;10.70;59.30
4406;DHT22;2216;53.806;11.598;2023-04-25T07:55:06;10.70;59.10
4406;DHT22;2216;53.806;11.598;2023-04-25T07:57:32;10.70;59.30
4406;DHT22;2216;53.806;11.598;2023-04-25T07:59:58;10.70;59.20
4406;DHT22;2216;53.806;11.598;2023-04-25T08:02:25;10.60;59.10
4406;DHT22;2216;53.806;11.598;2023-04-25T08:04:53;10.60;59.10
4406;DHT22;2216;53.806;11.598;2023-04-25T08:07:19;10.50;59.00
4406;DHT22;2216;53.806;11.598;2023-04-25T08:09:44;10.50;58.90
4406;DHT22;2216;53.806;11.598;2023-04-25T08:12:10;10.40;58.80
4406;DHT22;2216;53.806;11.598;2023-04-25T08:14:36;10.40;58.80
4406;DHT22;2216;53.806;11.598;2023-04-25T08:17:03;10.30;58.80
4406;DHT22;2216;53.806;11.598;2023-04-25T08:19:29;10.20;58.80
4406;DHT22;2216;53.806;11.598;2023-04-25T08:21:56;10.20;59.00
4406;DHT22;2216;53.806;11.598;2023-04-25T08:24:22;10.20;59.10
4406;DHT22;2216;53.806;11.598;2023-04-25T08:26:48;10.20;59.40
4406;DHT22;2216;53.806;11.598;2023-04-25T08:29:14;10.30;59.50
4406;DHT22;2216;53.806;11.598;2023-04-25T08:31:40;10.30;59.40
4406;DHT22;2216;53.806;11.598;2023-04-25T08:34:06;10.30;59.20
4406;DHT22;2216;53.806;11.598;2023-04-25T08:36:32;10.40;59.10
4406;DHT22;2216;53.806;11.598;2023-04-25T08:38:58;10.40;58.90
4406;DHT22;2216;53.806;11.598;2023-04-25T08:41:24;10.40;59.00
4406;DHT22;2216;53.806;11.598;2023-04-25T08:43:51;10.40;59.00
4406;DHT22;2216;53.806;11.598;2023-04-25T08:46:20;10.40;59.30
4406;DHT22;2216;53.806;11.598;2023-04-25T08:48:46;10.50;59.50
4406;DHT22;2216;53.806;11.598;2023-04-25T08:51:22;10.60;59.70
4406;DHT22;2216;53.806;11.598;2023-04-25T08:53:51;10.70;59.90
4406;DHT22;2216;53.806;11.598;2023-04-25T08:56:17;10.90;60.20
4406;DHT22;2216;53.806;11.598;2023-04-25T08:58:47;11.00;60.10
4406;DHT22;2216;53.806;11.598;2023-04-25T09:01:13;11.30;60.00
4406;DHT22;2216;53.806;11.598;2023-04-25T09:03:39;11.40;59.80
4406;DHT22;2216;53.806;11.598;2023-04-25T09:06:05;11.50;59.40
4406;DHT22;2216;53.806;11.598;2023-04-25T09:08:31;11.40;58.70
4406;DHT22;2216;53.806;11.598;2023-04-25T09:10:56;11.40;58.60
4406;DHT22;2216;53.806;11.598;2023-04-25T09:13:27;11.30;58.40
4406;DHT22;2216;53.806;11.598;2023-04-25T09:15:57;11.20;58.00
4406;DHT22;2216;53.806;11.598;2023-04-25T09:18:34;11.10;58.10
4406;DHT22;2216;53.806;11.598;2023-04-25T09:21:11;11.00;58.10
4406;DHT22;2216;53.806;11.598;2023-04-25T09:23:48;10.90;58.20
4406;DHT22;2216;53.806;11.598;2023-04-25T09:26:17;10.80;58.70
4406;DHT22;2216;53.806;11.598;2023-04-25T09:28:45;10.80;57.90
4406;DHT22;2216;53.806;11.598;2023-04-25T09:31:21;10.80;58.30
4406;DHT22;2216;53.806;11.598;2023-04-25T09:33:49;10.80;58.40
4406;DHT22;2216;53.806;11.598;2023-04-25T09:36:15;10.80;58.90
4406;DHT22;2216;53.806;11.598;2023-04-25T09:38:45;10.90;59.40
4406;DHT22;2216;53.806;11.598;2023-04-25T09:41:12;11.10;59.50
4406;DHT22;2216;53.806;11.598;2023-04-25T09:43:38;11.10;59.20
4406;DHT22;2216;53.806;11.598;2023-04-25T09:46:09;11.30;59.40
4406;DHT22;2216;53.806;11.598;2023-04-25T09:48:36;11.20;58.70
4406;DHT22;2216;53.806;11.598;2023-04-25T09:51:05;11.20;58.50
4406;DHT22;2216;53.806;11.598;2023-04-25T09:53:39;11.20;58.50
4406;DHT22;2216;53.806;11.598;2023-04-25T09:56:07;11.30;58.60
4406;DHT22;2216;53.806;11.598;2023-04-25T09:58:36;11.40;58.90
4406;DHT22;2216;53.806;11.598;2023-04-25T10:01:04;11.40;58.00
4406;DHT22;2216;53.806;11.598;2023-04-25T10:03:33;11.50;58.30
4406;DHT22;2216;53.806;11.598;2023-04-25T10:06:02;11.40;57.50
4406;DHT22;2216;53.806;11.598;2023-04-25T10:08:36;11.40;57.70
4406;DHT22;2216;53.806;11.598;2023-04-25T10:11:04;11.40;57.90
4406;DHT22;2216;53.806;11.598;2023-04-25T10:13:31;11.30;57.90
4406;DHT22;2216;53.806;11.598;2023-04-25T10:15:58;11.30;57.90
4406;DHT22;2216;53.806;11.598;2023-04-25T10:18:29;11.20;57.90
4406;DHT22;2216;53.806;11.598;2023-04-25T10:21:01;11.20;57.90
4406;DHT22;2216;53.806;11.598;2023-04-25T10:23:30;11.20;57.50
4406;DHT22;2216;53.806;11.598;2023-04-25T10:25:56;11.10;57.70
4406;DHT22;2216;53.806;11.598;2023-04-25T10:28:23;11.10;57.70
4406;DHT22;2216;53.806;11.598;2023-04-25T10:30:58;11.10;57.80
4406;DHT22;2216;53.806;11.598;2023-04-25T10:33:38;11.00;57.70
4406;DHT22;2216;53.806;11.598;2023-04-25T10:36:12;10.90;57.70
4406;DHT22;2216;53.806;11.598;2023-04-25T10:38:47;10.80;57.40
4406;DHT22;2216;53.806;11.598;2023-04-25T10:41:17;10.70;57.50
4406;DHT22;2216;53.806;11.598;2023-04-25T10:43:47;10.60;57.60
4406;DHT22;2216;53.806;11.598;2023-04-25T10:46:27;10.60;57.40
4406;DHT22;2216;53.806;11.598;2023-04-25T10:48:59;10.50;57.00
4406;DHT22;2216;53.806;11.598;2023-04-25T10:51:34;10.40;57.30
4406;DHT22;2216;53.806;11.598;2023-04-25T10:54:05;10.30;57.40
4406;DHT22;2216;53.806;11.598;2023-04-25T10:56:35;10.20;57.60
4406;DHT22;2216;53.806;11.598;2023-04-25T10:59:17;10.20;57.80
4406;DHT22;2216;53.806;11.598;2023-04-25T11:01:46;10.20;57.90
4406;DHT22;2216;53.806;11.598;2023-04-25T11:04:31;10.20;58.10
4406;DHT22;2216;53.806;11.598;2023-04-25T11:07:13;10.20;58.30
4406;DHT22;2216;53.806;11.598;2023-04-25T11:09:45;10.40;58.50
4406;DHT22;2216;53.806;11.598;2023-04-25T11:12:11;10.50;58.70
4406;DHT22;2216;53.806;11.598;2023-04-25T11:14:38;10.60;58.80
4406;DHT22;2216;53.806;11.598;2023-04-25T11:17:04;10.80;58.80
4406;DHT22;2216;53.806;11.598;2023-04-25T11:19:30;10.90;58.60
4406;DHT22;2216;53.806;11.598;2023-04-25T11:21:58;11.00;58.40
4406;DHT22;2216;53.806;11.598;2023-04-25T11:24:29;11.00;58.20
4406;DHT22;2216;53.806;11.598;2023-04-25T11:26:58;11.10;58.20
4406;DHT22;2216;53.806;11.598;2023-04-25T11:29:26;11.00;57.80
4406;DHT22;2216;53.806;11.598;2023-04-25T11:31:54;11.00;57.70
4406;DHT22;2216;53.806;11.598;2023-04-25T11:34:23;10.90;57.40
4406;DHT22;2216;53.806;11.598;2023-04-25T11:36:51;10.90;57.50
4406;DHT22;2216;53.806;11.598;2023-04-25T11:39:20;10.80;57.30
4406;DHT22;2216;53.806;11.598;2023-04-25T11:41:46;10.70;57.40
4406;DHT22;2216;53.806;11.598;2023-04-25T11:44:16;10.60;57.40
4406;DHT22;2216;53.806;11.598;2023-04-25T11:46:42;10.60;57.40
4406;DHT22;2216;53.806;11.598;2023-04-25T11:49:08;10.50;57.50
4406;DHT22;2216;53.806;11.598;2023-04-25T11:51:41;10.40;57.70
4406;DHT22;2216;53.806;11.598;2023-04-25T11:54:08;10.40;57.90
4406;DHT22;2216;53.806;11.598;2023-04-25T11:56:34;10.50;58.20
4406;DHT22;2216;53.806;11.598;2023-04-25T11:59:02;10.50;58.30
4406;DHT22;2216;53.806;11.598;2023-04-25T12:01:30;10.60;58.40
4406;DHT22;2216;53.806;11.598;2023-04-25T12:04:17;10.60;58.30
4406;DHT22;2216;53.806;11.598;2023-04-25T12:06:48;10.70;58.30
4406;DHT22;2216;53.806;11.598;2023-04-25T12:09:36;10.80;58.10
4406;DHT22;2216;53.806;11.598;2023-04-25T12:12:02;10.90;58.30
4406;DHT22;2216;53.806;11.598;2023-04-25T12:14:34;10.90;58.00
4406;DHT22;2216;53.806;11.598;2023-04-25T12:17:03;10.90;58.00
4406;DHT22;2216;53.806;11.598;2023-04-25T12:19:35;11.00;58.00
4406;DHT22;2216;53.806;11.598;2023-04-25T12:22:02;11.00;57.80
4406;DHT22;2216;53.806;11.598;2023-04-25T12:24:28;11.00;57.90
4406;DHT22;2216;53.806;11.598;2023-04-25T12:27:03;11.10;57.90
4406;DHT22;2216;53.806;11.598;2023-04-25T12:29:32;11.10;57.50
4406;DHT22;2216;53.806;11.598;2023-04-25T12:31:58;11.20;58.00
4406;DHT22;2216;53.806;11.598;2023-04-25T12:34:27;11.20;57.70
4406;DHT22;2216;53.806;11.598;2023-04-25T12:36:53;11.20;57.70
4406;DHT22;2216;53.806;11.598;2023-04-25T12:39:23;11.20;57.50
4406;DHT22;2216;53.806;11.598;2023-04-25T12:41:50;11.10;57.30
4406;DHT22;2216;53.806;11.598;2023-04-25T12:44:17;11.10;57.30
4406;DHT22;2216;53.806;11.598;2023-04-25T12:46:43;10.90;57.40
4406;DHT22;2216;53.806;11.598;2023-04-25T12:49:09;11.00;57.40
4406;DHT22;2216;53.806;11.598;2023-04-25T12:51:35;10.90;57.30
4406;DHT22;2216;53.806;11.598;2023-04-25T12:54:03;10.80;57.50
4406;DHT22;2216;53.806;11.598;2023-04-25T12:56:30;10.80;57.70
4406;DHT22;2216;53.806;11.598;2023-04-25T12:58:56;10.80;57.60
4406;DHT22;2216;53.806;11.598;2023-04-25T13:01:23;10.80;57.60
4406;DHT22;2216;53.806;11.598;2023-04-25T13:03:49;10.70;57.40
4406;DHT22;2216;53.806;11.598;2023-04-25T13:06:15;10.70;57.40
4406;DHT22;2216;53.806;11.598;2023-04-25T13:08:42;10.50;57.40
4406;DHT22;2216;53.806;11.598;2023-04-25T13:11:08;10.40;57.30
4406;DHT22;2216;53.806;11.598;2023-04-25T13:13:34;10.30;57.30
4406;DHT22;2216;53.806;11.598;2023-04-25T13:16:04;10.20;57.50
4406;DHT22;2216;53.806;11.598;2023-04-25T13:18:30;10.10;57.50
4406;DHT22;2216;53.806;11.598;2023-04-25T13:20:57;10.00;57.60
4406;DHT22;2216;53.806;11.598;2023-04-25T13:23:25;9.90;57.80
4406;DHT22;2216;53.806;11.598;2023-04-25T13:25:52;9.90;58.10
4406;DHT22;2216;53.806;11.598;2023-04-25T13:28:18;9.90;58.20
4406;DHT22;2216;53.806;11.598;2023-04-25T13:30:44;9.90;58.70
4406;DHT22;2216;53.806;11.598;2023-04-25T13:33:11;10.00;58.90
4406;DHT22;2216;53.806;11.598;2023-04-25T13:35:38;10.10;59.10
4406;DHT22;2216;53.806;11.598;2023-04-25T13:38:04;10.30;59.50
4406;DHT22;2216;53.806;11.598;2023-04-25T13:40:30;10.50;59.70
4406;DHT22;2216;53.806;11.598;2023-04-25T13:42:57;10.70;59.40
4406;DHT22;2216;53.806;11.598;2023-04-25T13:45:22;10.80;58.80
4406;DHT22;2216;53.806;11.598;2023-04-25T13:47:48;10.90;58.60
4406;DHT22;2216;53.806;11.598;2023-04-25T13:50:14;10.90;58.30
4406;DHT22;2216;53.806;11.598;2023-04-25T13:52:41;10.90;58.00
4406;DHT22;2216;53.806;11.598;2023-04-25T13:55:07;10.80;57.80
4406;DHT22;2216;53.806;11.598;2023-04-25T13:57:34;10.70;57.70
4406;DHT22;2216;53.806;11.598;2023-04-25T14:00:00;10.60;57.50
4406;DHT22;2216;53.806;11.598;2023-04-25T14:02:37;10.50;57.40
4406;DHT22;2216;53.806;11.598;2023-04-25T14:05:04;10.40;57.40
4406;DHT22;2216;53.806;11.598;2023-04-25T14:07:30;10.20;57.40
4406;DHT22;2216;53.806;11.598;2023-04-25T14:09:57;10.20;57.60
4406;DHT22;2216;53.806;11.598;2023-04-25T14:12:23;10.10;57.80
4406;DHT22;2216;53.806;11.598;2023-04-25T14:14:49;10.10;57.90
4406;DHT22;2216;53.806;11.598;2023-04-25T14:17:14;10.10;58.00
4406;DHT22;2216;53.806;11.598;2023-04-25T14:19:40;10.10;58.20
4406;DHT22;2216;53.806;11.598;2023-04-25T14:22:10;10.10;58.30
4406;DHT22;2216;53.806;11.598;2023-04-25T14:24:36;10.10;58.40
4406;DHT22;2216;53.806;11.598;2023-04-25T14:27:02;10.20;58.40
4406;DHT22;2216;53.806;11.598;2023-04-25T14:29:29;10.30;58.60
4406;DHT22;2216;53.806;11.598;2023-04-25T14:31:55;10.40;58.90
4406;DHT22;2216;53.806;11.598;2023-04-25T14:34:22;10.50;59.00
4406;DHT22;2216;53.806;11.598;2023-04-25T14:36:49;10.60;59.20
4406;DHT22;2216;53.806;11.598;2023-04-25T14:39:15;10.80;59.20
4406;DHT22;2216;53.806;11.598;2023-04-25T14:41:41;10.90;59.10
4406;DHT22;2216;53.806;11.598;2023-04-25T14:44:07;11.00;58.90
4406;DHT22;2216;53.806;11.598;2023-04-25T14:46:33;11.20;58.80
4406;DHT22;2216;53.806;11.598;2023-04-25T14:48:59;11.20;58.50
4406;DHT22;2216;53.806;11.598;2023-04-25T14:51:26;11.20;57.90
4406;DHT22;2216;53.806;11.598;2023-04-25T14:53:52;11.30;58.10
4406;DHT22;2216;53.806;11.598;2023-04-25T14:56:18;11.20;57.80
4406;DHT22;2216;53.806;11.598;2023-04-25T14:58:44;11.20;57.80
4406;DHT22;2216;53.806;11.598;2023-04-25T15:01:11;11.10;57.40
4406;DHT22;2216;53.806;11.598;2023-04-25T15:03:38;11.00;57.40
4406;DHT22;2216;53.806;11.598;2023-04-25T15:06:05;10.90;57.50
4406;DHT22;2216;53.806;11.598;2023-04-25T15:08:31;10.80;57.50
4406;DHT22;2216;53.806;11.598;2023-04-25T15:10:58;10.80;57.60
4406;DHT22;2216;53.806;11.598;2023-04-25T15:13:24;10.70;57.70
4406;DHT22;2216;53.806;11.598;2023-04-25T15:15:50;10.70;57.80
4406;DHT22;2216;53.806;11.598;2023-04-25T15:18:17;10.60;58.40
4406;DHT22;2216;53.806;11.598;2023-04-25T15:20:47;10.70;58.00
4406;DHT22;2216;53.806;11.598;2023-04-25T15:23:12;10.60;58.10
4406;DHT22;2216;53.806;11.598;2023-04-25T15:25:38;10.70;58.30
4406;DHT22;2216;53.806;11.598;2023-04-25T15:28:03;10.70;58.30
4406;DHT22;2216;53.806;11.598;2023-04-25T15:30:29;10.70;58.40
4406;DHT22;2216;53.806;11.598;2023-04-25T15:32:55;10.70;58.20
4406;DHT22;2216;53.806;11.598;2023-04-25T15:35:21;10.80;58.20
4406;DHT22;2216;53.806;11.598;2023-04-25T15:37:47;10.80;58.20
4406;DHT22;2216;53.806;11.598;2023-04-25T15:40:16;10.80;58.00
4406;DHT22;2216;53.806;11.598;2023-04-25T15:42:47;10.80;57.90
4406;DHT22;2216;53.806;11.598;2023-04-25T15:45:16;10.80;57.90
4406;DHT22;2216;53.806;11.598;2023-04-25T15:47:43;10.80;58.00
4406;DHT22;2216;53.806;11.598;2023-04-25T15:50:09;10.80;58.20
4406;DHT22;2216;53.806;11.598;2023-04-25T15:52:36;10.80;57.90